Main page
METAR-TAF:

METAR-TAF

Airports :

Gibraltar, Gibraltar

Gibraltar International Airport

latitude: 36-09N, longitude: 005-21W, elevation: 5 m

Current weather observation

The report was made 39 minutes ago, at 06:50 UTC
Wind 2 kt from the West
Temperature 12°C
Humidity 100%
Pressure 1017 hPa
Visibility: 6000 m
Few clouds at a height lower than 100 ft
mist

METAR: LXGB 220650Z 26002KT 9000 6000W BR FEW000 12/12 Q1017 TEMPO 9999 NSW SCT010

Time: 08:29 (07:29 UTC)

Forecast

The report was made 2 hours and 2 minutes ago, at 05:27 UTC
Forecast valid from 22 at 06 UTC to 22 at 15 UTC
Wind 3 kt from variable directions
Visibility 10 km or more
Few clouds at a height of 1000 ft
Temporary
from 22 at 06 UTC to 22 at 09 UTC
Visibility: 7000 m
Scattered clouds at a height of 1000 ft
haze
Probability 30% :
Temporary
from 22 at 09 UTC to 22 at 11 UTC
Scattered clouds at a height of 1500 ft

TAF: LXGB 220527Z 2206/2215 VRB03KT 9999 FEW010 TEMPO 2206/2209 7000 HZ SCT010 PROB30 TEMPO 2209/2211 SCT015

Weather observations and forecasts of more than 4000 airports (METAR and TAF reports).

The available stations are represented by yellow and red dots on the map.

Hover mouse over dot to see the name of the station.

Then click to see weather observations and forecasts.

To change the map : click on the green buttons with a black cross to zoom in, on the green button with a dash to zoom out, or on the green arrows for adjacent maps.


METAR-TAF: